sensor_id;sensor_type;location;lat;lon;timestamp;temperature;humidity
9666;DHT22;4871;52.004;5.924;2023-04-25T00:00:07;8.2;70.0
9666;DHT22;4871;52.004;5.924;2023-04-25T00:01:00;8.2;70.0
9666;DHT22;4871;52.004;5.924;2023-04-25T00:02:07;8.1;70.2
9666;DHT22;4871;52.004;5.924;2023-04-25T00:03:00;8.1;70.2
9666;DHT22;4871;52.004;5.924;2023-04-25T00:04:07;8.1;70.3
9666;DHT22;4871;52.004;5.924;2023-04-25T00:05:01;8.1;70.1
9666;DHT22;4871;52.004;5.924;2023-04-25T00:06:06;8.1;70.0
9666;DHT22;4871;52.004;5.924;2023-04-25T00:07:01;8.1;70.0
9666;DHT22;4871;52.004;5.924;2023-04-25T00:08:06;8.1;70.1
9666;DHT22;4871;52.004;5.924;2023-04-25T00:09:00;8.1;70.1
9666;DHT22;4871;52.004;5.924;2023-04-25T00:10:07;8.1;70.1
9666;DHT22;4871;52.004;5.924;2023-04-25T00:11:00;8.1;70.1
9666;DHT22;4871;52.004;5.924;2023-04-25T00:12:06;8.1;70.0
9666;DHT22;4871;52.004;5.924;2023-04-25T00:13:03;8.1;70.1
9666;DHT22;4871;52.004;5.924;2023-04-25T00:14:06;8.0;70.0
9666;DHT22;4871;52.004;5.924;2023-04-25T00:15:00;8.0;69.9
9666;DHT22;4871;52.004;5.924;2023-04-25T00:16:07;8.0;70.1
9666;DHT22;4871;52.004;5.924;2023-04-25T00:17:00;8.0;70.2
9666;DHT22;4871;52.004;5.924;2023-04-25T00:18:06;8.0;70.1
9666;DHT22;4871;52.004;5.924;2023-04-25T00:19:02;8.0;70.1
9666;DHT22;4871;52.004;5.924;2023-04-25T00:20:05;8.0;70.2
9666;DHT22;4871;52.004;5.924;2023-04-25T00:21:00;7.9;70.2
9666;DHT22;4871;52.004;5.924;2023-04-25T00:22:06;7.9;70.2
9666;DHT22;4871;52.004;5.924;2023-04-25T00:23:00;7.9;70.3
9666;DHT22;4871;52.004;5.924;2023-04-25T00:24:07;7.9;70.1
9666;DHT22;4871;52.004;5.924;2023-04-25T00:25:00;7.9;70.1
9666;DHT22;4871;52.004;5.924;2023-04-25T00:26:06;7.9;70.0
9666;DHT22;4871;52.004;5.924;2023-04-25T00:27:00;7.9;70.2
9666;DHT22;4871;52.004;5.924;2023-04-25T00:28:05;7.8;69.9
9666;DHT22;4871;52.004;5.924;2023-04-25T00:29:00;7.8;70.3
9666;DHT22;4871;52.004;5.924;2023-04-25T00:30:08;7.8;70.2
9666;DHT22;4871;52.004;5.924;2023-04-25T00:31:00;7.8;70.1
9666;DHT22;4871;52.004;5.924;2023-04-25T00:32:07;7.8;70.3
9666;DHT22;4871;52.004;5.924;2023-04-25T00:33:00;7.8;70.0
9666;DHT22;4871;52.004;5.924;2023-04-25T00:34:08;7.8;70.2
9666;DHT22;4871;52.004;5.924;2023-04-25T00:35:01;7.8;70.1
9666;DHT22;4871;52.004;5.924;2023-04-25T00:36:05;7.7;70.2
9666;DHT22;4871;52.004;5.924;2023-04-25T00:37:02;7.7;70.3
9666;DHT22;4871;52.004;5.924;2023-04-25T00:38:06;7.7;70.2
9666;DHT22;4871;52.004;5.924;2023-04-25T00:39:00;7.7;70.2
9666;DHT22;4871;52.004;5.924;2023-04-25T00:40:07;7.7;70.2
9666;DHT22;4871;52.004;5.924;2023-04-25T00:41:00;7.7;70.3
9666;DHT22;4871;52.004;5.924;2023-04-25T00:42:06;7.7;70.2
9666;DHT22;4871;52.004;5.924;2023-04-25T00:43:00;7.7;70.3
9666;DHT22;4871;52.004;5.924;2023-04-25T00:44:08;7.7;70.3
9666;DHT22;4871;52.004;5.924;2023-04-25T00:45:00;7.7;70.1
9666;DHT22;4871;52.004;5.924;2023-04-25T00:46:06;7.6;70.3
9666;DHT22;4871;52.004;5.924;2023-04-25T00:47:01;7.6;70.3
9666;DHT22;4871;52.004;5.924;2023-04-25T00:48:07;7.6;70.3
9666;DHT22;4871;52.004;5.924;2023-04-25T00:49:00;7.6;70.4
9666;DHT22;4871;52.004;5.924;2023-04-25T00:50:08;7.6;70.2
9666;DHT22;4871;52.004;5.924;2023-04-25T00:51:00;7.6;70.4
9666;DHT22;4871;52.004;5.924;2023-04-25T00:52:04;7.6;70.2
9666;DHT22;4871;52.004;5.924;2023-04-25T00:53:00;7.6;70.3
9666;DHT22;4871;52.004;5.924;2023-04-25T00:54:07;7.5;70.1
9666;DHT22;4871;52.004;5.924;2023-04-25T00:55:00;7.5;70.3
9666;DHT22;4871;52.004;5.924;2023-04-25T00:56:06;7.5;70.5
9666;DHT22;4871;52.004;5.924;2023-04-25T00:57:00;7.5;70.3
9666;DHT22;4871;52.004;5.924;2023-04-25T00:58:05;7.5;70.4
9666;DHT22;4871;52.004;5.924;2023-04-25T00:59:00;7.5;70.3
9666;DHT22;4871;52.004;5.924;2023-04-25T01:00:08;7.5;70.3
9666;DHT22;4871;52.004;5.924;2023-04-25T01:01:00;7.5;70.3
9666;DHT22;4871;52.004;5.924;2023-04-25T01:02:07;7.5;70.5
9666;DHT22;4871;52.004;5.924;2023-04-25T01:03:00;7.5;70.3
9666;DHT22;4871;52.004;5.924;2023-04-25T01:04:07;7.5;70.2
9666;DHT22;4871;52.004;5.924;2023-04-25T01:05:01;7.5;70.3
9666;DHT22;4871;52.004;5.924;2023-04-25T01:06:05;7.5;70.4
9666;DHT22;4871;52.004;5.924;2023-04-25T01:07:00;7.5;70.1
9666;DHT22;4871;52.004;5.924;2023-04-25T01:08:06;7.5;70.3
9666;DHT22;4871;52.004;5.924;2023-04-25T01:09:01;7.5;70.5
9666;DHT22;4871;52.004;5.924;2023-04-25T01:10:08;7.5;70.4
9666;DHT22;4871;52.004;5.924;2023-04-25T01:11:00;7.4;70.1
9666;DHT22;4871;52.004;5.924;2023-04-25T01:12:07;7.5;70.3
9666;DHT22;4871;52.004;5.924;2023-04-25T01:13:00;7.4;70.1
9666;DHT22;4871;52.004;5.924;2023-04-25T01:14:07;7.4;70.2
9666;DHT22;4871;52.004;5.924;2023-04-25T01:15:00;7.4;70.2
9666;DHT22;4871;52.004;5.924;2023-04-25T01:16:07;7.4;70.3
9666;DHT22;4871;52.004;5.924;2023-04-25T01:17:00;7.4;70.3
9666;DHT22;4871;52.004;5.924;2023-04-25T01:18:07;7.5;70.1
9666;DHT22;4871;52.004;5.924;2023-04-25T01:19:00;7.4;70.1
9666;DHT22;4871;52.004;5.924;2023-04-25T01:20:07;7.4;70.3
9666;DHT22;4871;52.004;5.924;2023-04-25T01:21:06;7.4;70.2
9666;DHT22;4871;52.004;5.924;2023-04-25T01:22:08;7.3;70.5
9666;DHT22;4871;52.004;5.924;2023-04-25T01:23:00;7.3;70.3
9666;DHT22;4871;52.004;5.924;2023-04-25T01:24:06;7.3;70.5
9666;DHT22;4871;52.004;5.924;2023-04-25T01:25:00;7.3;70.5
9666;DHT22;4871;52.004;5.924;2023-04-25T01:26:08;7.3;70.4
9666;DHT22;4871;52.004;5.924;2023-04-25T01:27:00;7.3;70.3
9666;DHT22;4871;52.004;5.924;2023-04-25T01:28:07;7.3;70.2
9666;DHT22;4871;52.004;5.924;2023-04-25T01:29:00;7.3;70.5
9666;DHT22;4871;52.004;5.924;2023-04-25T01:30:07;7.2;70.7
9666;DHT22;4871;52.004;5.924;2023-04-25T01:31:01;7.2;70.4
9666;DHT22;4871;52.004;5.924;2023-04-25T01:32:07;7.3;70.5
9666;DHT22;4871;52.004;5.924;2023-04-25T01:33:00;7.3;70.5
9666;DHT22;4871;52.004;5.924;2023-04-25T01:34:06;7.3;70.1
9666;DHT22;4871;52.004;5.924;2023-04-25T01:35:00;7.3;70.3
9666;DHT22;4871;52.004;5.924;2023-04-25T01:36:07;7.3;70.3
9666;DHT22;4871;52.004;5.924;2023-04-25T01:37:00;7.3;70.4
9666;DHT22;4871;52.004;5.924;2023-04-25T01:38:06;7.3;70.3
9666;DHT22;4871;52.004;5.924;2023-04-25T01:39:00;7.2;70.3
9666;DHT22;4871;52.004;5.924;2023-04-25T01:40:08;7.2;70.4
9666;DHT22;4871;52.004;5.924;2023-04-25T01:41:00;7.2;70.5
9666;DHT22;4871;52.004;5.924;2023-04-25T01:42:06;7.2;70.7
9666;DHT22;4871;52.004;5.924;2023-04-25T01:43:00;7.2;70.6
9666;DHT22;4871;52.004;5.924;2023-04-25T01:44:07;7.2;70.5
9666;DHT22;4871;52.004;5.924;2023-04-25T01:45:00;7.2;70.7
9666;DHT22;4871;52.004;5.924;2023-04-25T01:46:06;7.2;70.4
9666;DHT22;4871;52.004;5.924;2023-04-25T01:47:00;7.2;70.6
9666;DHT22;4871;52.004;5.924;2023-04-25T01:48:06;7.2;70.6
9666;DHT22;4871;52.004;5.924;2023-04-25T01:49:00;7.2;70.4
9666;DHT22;4871;52.004;5.924;2023-04-25T01:50:08;7.2;70.7
9666;DHT22;4871;52.004;5.924;2023-04-25T01:51:00;7.2;70.5
9666;DHT22;4871;52.004;5.924;2023-04-25T01:52:06;7.2;70.4
9666;DHT22;4871;52.004;5.924;2023-04-25T01:53:01;7.2;70.5
9666;DHT22;4871;52.004;5.924;2023-04-25T01:54:07;7.2;70.5
9666;DHT22;4871;52.004;5.924;2023-04-25T01:55:01;7.2;70.7
9666;DHT22;4871;52.004;5.924;2023-04-25T01:56:06;7.2;70.4
9666;DHT22;4871;52.004;5.924;2023-04-25T01:57:00;7.2;70.5
9666;DHT22;4871;52.004;5.924;2023-04-25T01:58:09;7.3;70.4
9666;DHT22;4871;52.004;5.924;2023-04-25T01:59:00;7.2;70.6
9666;DHT22;4871;52.004;5.924;2023-04-25T02:00:07;7.2;70.4
9666;DHT22;4871;52.004;5.924;2023-04-25T02:01:00;7.3;70.2
9666;DHT22;4871;52.004;5.924;2023-04-25T02:02:06;7.2;70.4
9666;DHT22;4871;52.004;5.924;2023-04-25T02:03:00;7.3;70.4
9666;DHT22;4871;52.004;5.924;2023-04-25T02:04:05;7.2;70.2
9666;DHT22;4871;52.004;5.924;2023-04-25T02:05:00;7.2;70.5
9666;DHT22;4871;52.004;5.924;2023-04-25T02:06:06;7.2;70.3
9666;DHT22;4871;52.004;5.924;2023-04-25T02:07:00;7.2;70.5
9666;DHT22;4871;52.004;5.924;2023-04-25T02:08:09;7.2;70.5
9666;DHT22;4871;52.004;5.924;2023-04-25T02:09:00;7.2;70.4
9666;DHT22;4871;52.004;5.924;2023-04-25T02:10:06;7.2;70.3
9666;DHT22;4871;52.004;5.924;2023-04-25T02:11:00;7.2;70.2
9666;DHT22;4871;52.004;5.924;2023-04-25T02:12:07;7.2;70.2
9666;DHT22;4871;52.004;5.924;2023-04-25T02:13:00;7.2;70.4
9666;DHT22;4871;52.004;5.924;2023-04-25T02:14:06;7.2;70.3
9666;DHT22;4871;52.004;5.924;2023-04-25T02:15:00;7.2;70.2
9666;DHT22;4871;52.004;5.924;2023-04-25T02:16:07;7.2;70.4
9666;DHT22;4871;52.004;5.924;2023-04-25T02:17:00;7.2;70.3
9666;DHT22;4871;52.004;5.924;2023-04-25T02:18:06;7.2;70.4
9666;DHT22;4871;52.004;5.924;2023-04-25T02:19:00;7.2;70.2
9666;DHT22;4871;52.004;5.924;2023-04-25T02:20:06;7.2;70.2
9666;DHT22;4871;52.004;5.924;2023-04-25T02:21:01;7.2;70.2
9666;DHT22;4871;52.004;5.924;2023-04-25T02:22:06;7.2;70.4
9666;DHT22;4871;52.004;5.924;2023-04-25T02:23:00;7.1;70.3
9666;DHT22;4871;52.004;5.924;2023-04-25T02:24:07;7.2;70.4
9666;DHT22;4871;52.004;5.924;2023-04-25T02:25:00;7.2;70.5
9666;DHT22;4871;52.004;5.924;2023-04-25T02:26:07;7.2;70.3
9666;DHT22;4871;52.004;5.924;2023-04-25T02:27:00;7.1;70.6
9666;DHT22;4871;52.004;5.924;2023-04-25T02:28:08;7.1;70.4
9666;DHT22;4871;52.004;5.924;2023-04-25T02:29:01;7.1;70.4
9666;DHT22;4871;52.004;5.924;2023-04-25T02:30:07;7.1;70.3
9666;DHT22;4871;52.004;5.924;2023-04-25T02:31:00;7.1;70.4
9666;DHT22;4871;52.004;5.924;2023-04-25T02:32:06;7.1;70.4
9666;DHT22;4871;52.004;5.924;2023-04-25T02:33:00;7.1;70.4
9666;DHT22;4871;52.004;5.924;2023-04-25T02:34:07;7.1;70.5
9666;DHT22;4871;52.004;5.924;2023-04-25T02:35:04;7.1;70.5
9666;DHT22;4871;52.004;5.924;2023-04-25T02:36:06;7.1;70.5
9666;DHT22;4871;52.004;5.924;2023-04-25T02:37:00;7.1;70.4
9666;DHT22;4871;52.004;5.924;2023-04-25T02:38:06;7.1;70.2
9666;DHT22;4871;52.004;5.924;2023-04-25T02:39:00;7.1;70.0
9666;DHT22;4871;52.004;5.924;2023-04-25T02:40:07;7.1;70.5
9666;DHT22;4871;52.004;5.924;2023-04-25T02:41:00;7.1;70.4
9666;DHT22;4871;52.004;5.924;2023-04-25T02:42:05;7.1;70.4
9666;DHT22;4871;52.004;5.924;2023-04-25T02:43:00;7.1;70.4
9666;DHT22;4871;52.004;5.924;2023-04-25T02:44:07;7.0;70.5
9666;DHT22;4871;52.004;5.924;2023-04-25T02:45:00;7.0;70.6
9666;DHT22;4871;52.004;5.924;2023-04-25T02:46:07;7.0;70.6
9666;DHT22;4871;52.004;5.924;2023-04-25T02:47:00;7.0;70.6
9666;DHT22;4871;52.004;5.924;2023-04-25T02:48:06;7.0;70.5
9666;DHT22;4871;52.004;5.924;2023-04-25T02:49:00;7.0;70.5
9666;DHT22;4871;52.004;5.924;2023-04-25T02:50:07;7.0;70.5
9666;DHT22;4871;52.004;5.924;2023-04-25T02:51:00;7.0;70.5
9666;DHT22;4871;52.004;5.924;2023-04-25T02:52:06;7.0;70.4
9666;DHT22;4871;52.004;5.924;2023-04-25T02:53:00;7.0;70.6
9666;DHT22;4871;52.004;5.924;2023-04-25T02:54:06;7.0;70.5
9666;DHT22;4871;52.004;5.924;2023-04-25T02:55:00;7.0;70.5
9666;DHT22;4871;52.004;5.924;2023-04-25T02:56:06;7.0;70.5
9666;DHT22;4871;52.004;5.924;2023-04-25T02:57:00;6.9;70.5
9666;DHT22;4871;52.004;5.924;2023-04-25T02:58:07;7.0;70.6
9666;DHT22;4871;52.004;5.924;2023-04-25T02:59:00;7.0;70.5
9666;DHT22;4871;52.004;5.924;2023-04-25T03:00:08;6.9;70.5
9666;DHT22;4871;52.004;5.924;2023-04-25T03:01:00;6.9;70.6
9666;DHT22;4871;52.004;5.924;2023-04-25T03:02:05;6.9;70.7
9666;DHT22;4871;52.004;5.924;2023-04-25T03:03:00;6.9;70.7
9666;DHT22;4871;52.004;5.924;2023-04-25T03:04:07;6.9;70.6
9666;DHT22;4871;52.004;5.924;2023-04-25T03:05:00;6.9;70.6
9666;DHT22;4871;52.004;5.924;2023-04-25T03:06:06;6.9;70.6
9666;DHT22;4871;52.004;5.924;2023-04-25T03:07:01;6.9;70.1
9666;DHT22;4871;52.004;5.924;2023-04-25T03:08:05;6.9;70.5
9666;DHT22;4871;52.004;5.924;2023-04-25T03:09:00;6.9;70.4
9666;DHT22;4871;52.004;5.924;2023-04-25T03:10:07;6.9;70.4
9666;DHT22;4871;52.004;5.924;2023-04-25T03:11:00;6.9;70.3
9666;DHT22;4871;52.004;5.924;2023-04-25T03:12:06;6.9;70.3
9666;DHT22;4871;52.004;5.924;2023-04-25T03:13:00;6.9;70.3
9666;DHT22;4871;52.004;5.924;2023-04-25T03:14:06;6.8;70.4
9666;DHT22;4871;52.004;5.924;2023-04-25T03:15:00;6.8;70.3
9666;DHT22;4871;52.004;5.924;2023-04-25T03:16:06;6.8;70.6
9666;DHT22;4871;52.004;5.924;2023-04-25T03:17:00;6.7;70.4
9666;DHT22;4871;52.004;5.924;2023-04-25T03:18:00;6.8;70.4
9666;DHT22;4871;52.004;5.924;2023-04-25T03:19:00;6.8;70.3
9666;DHT22;4871;52.004;5.924;2023-04-25T03:20:09;6.8;70.3
9666;DHT22;4871;52.004;5.924;2023-04-25T03:21:00;6.7;70.5
9666;DHT22;4871;52.004;5.924;2023-04-25T03:22:06;6.7;70.6
9666;DHT22;4871;52.004;5.924;2023-04-25T03:23:00;6.7;70.4
9666;DHT22;4871;52.004;5.924;2023-04-25T03:24:06;6.7;70.6
9666;DHT22;4871;52.004;5.924;2023-04-25T03:25:00;6.7;70.4
9666;DHT22;4871;52.004;5.924;2023-04-25T03:26:06;6.7;70.2
9666;DHT22;4871;52.004;5.924;2023-04-25T03:27:00;6.7;70.3
9666;DHT22;4871;52.004;5.924;2023-04-25T03:28:05;6.7;70.3
9666;DHT22;4871;52.004;5.924;2023-04-25T03:29:00;6.6;70.5
9666;DHT22;4871;52.004;5.924;2023-04-25T03:30:08;6.6;70.5
9666;DHT22;4871;52.004;5.924;2023-04-25T03:31:00;6.6;70.6
9666;DHT22;4871;52.004;5.924;2023-04-25T03:32:06;6.7;70.5
9666;DHT22;4871;52.004;5.924;2023-04-25T03:33:00;6.6;70.6
9666;DHT22;4871;52.004;5.924;2023-04-25T03:34:00;6.6;70.6
9666;DHT22;4871;52.004;5.924;2023-04-25T03:35:00;6.6;70.4
9666;DHT22;4871;52.004;5.924;2023-04-25T03:36:06;6.6;70.6
9666;DHT22;4871;52.004;5.924;2023-04-25T03:37:00;6.6;70.6
9666;DHT22;4871;52.004;5.924;2023-04-25T03:38:06;6.6;70.4
9666;DHT22;4871;52.004;5.924;2023-04-25T03:39:00;6.6;70.5
9666;DHT22;4871;52.004;5.924;2023-04-25T03:40:07;6.6;70.3
9666;DHT22;4871;52.004;5.924;2023-04-25T03:41:00;6.6;70.6
9666;DHT22;4871;52.004;5.924;2023-04-25T03:42:06;6.6;70.4
9666;DHT22;4871;52.004;5.924;2023-04-25T03:43:00;6.5;70.2
9666;DHT22;4871;52.004;5.924;2023-04-25T03:44:07;6.5;70.3
9666;DHT22;4871;52.004;5.924;2023-04-25T03:45:00;6.5;70.5
9666;DHT22;4871;52.004;5.924;2023-04-25T03:46:05;6.5;70.5
9666;DHT22;4871;52.004;5.924;2023-04-25T03:47:00;6.5;70.6
9666;DHT22;4871;52.004;5.924;2023-04-25T03:48:06;6.5;70.5
9666;DHT22;4871;52.004;5.924;2023-04-25T03:49:00;6.5;70.3
9666;DHT22;4871;52.004;5.924;2023-04-25T03:50:06;6.5;70.5
9666;DHT22;4871;52.004;5.924;2023-04-25T03:51:00;6.5;70.5
9666;DHT22;4871;52.004;5.924;2023-04-25T03:52:00;6.5;70.5
9666;DHT22;4871;52.004;5.924;2023-04-25T03:53:00;6.5;70.5
9666;DHT22;4871;52.004;5.924;2023-04-25T03:54:07;6.5;70.4
9666;DHT22;4871;52.004;5.924;2023-04-25T03:55:00;6.4;70.2
9666;DHT22;4871;52.004;5.924;2023-04-25T03:56:00;6.4;70.6
9666;DHT22;4871;52.004;5.924;2023-04-25T03:57:00;6.4;70.5
9666;DHT22;4871;52.004;5.924;2023-04-25T03:58:00;6.4;70.5
9666;DHT22;4871;52.004;5.924;2023-04-25T03:59:00;6.4;70.3
9666;DHT22;4871;52.004;5.924;2023-04-25T04:00:07;6.4;70.5
9666;DHT22;4871;52.004;5.924;2023-04-25T04:01:00;6.4;70.5
9666;DHT22;4871;52.004;5.924;2023-04-25T04:02:00;6.4;70.5
9666;DHT22;4871;52.004;5.924;2023-04-25T04:03:00;6.4;70.5
9666;DHT22;4871;52.004;5.924;2023-04-25T04:04:00;6.3;70.7
9666;DHT22;4871;52.004;5.924;2023-04-25T04:05:00;6.3;70.8
9666;DHT22;4871;52.004;5.924;2023-04-25T04:06:07;6.4;70.6
9666;DHT22;4871;52.004;5.924;2023-04-25T04:07:00;6.4;70.5
9666;DHT22;4871;52.004;5.924;2023-04-25T04:08:00;6.4;70.5
9666;DHT22;4871;52.004;5.924;2023-04-25T04:09:00;6.3;70.5
9666;DHT22;4871;52.004;5.924;2023-04-25T04:10:07;6.3;70.6
9666;DHT22;4871;52.004;5.924;2023-04-25T04:11:00;6.3;70.5
9666;DHT22;4871;52.004;5.924;2023-04-25T04:12:06;6.3;70.7
9666;DHT22;4871;52.004;5.924;2023-04-25T04:13:00;6.3;70.5
9666;DHT22;4871;52.004;5.924;2023-04-25T04:14:07;6.3;70.6
9666;DHT22;4871;52.004;5.924;2023-04-25T04:15:00;6.2;70.7
9666;DHT22;4871;52.004;5.924;2023-04-25T04:16:06;6.2;70.8
9666;DHT22;4871;52.004;5.924;2023-04-25T04:17:00;6.2;70.6
9666;DHT22;4871;52.004;5.924;2023-04-25T04:18:07;6.2;70.6
9666;DHT22;4871;52.004;5.924;2023-04-25T04:19:00;6.2;70.8
9666;DHT22;4871;52.004;5.924;2023-04-25T04:20:00;6.2;70.6
9666;DHT22;4871;52.004;5.924;2023-04-25T04:21:00;6.2;70.6
9666;DHT22;4871;52.004;5.924;2023-04-25T04:22:07;6.2;70.9
9666;DHT22;4871;52.004;5.924;2023-04-25T04:23:01;6.2;70.6
9666;DHT22;4871;52.004;5.924;2023-04-25T04:24:07;6.1;70.6
9666;DHT22;4871;52.004;5.924;2023-04-25T04:25:00;6.1;70.8
9666;DHT22;4871;52.004;5.924;2023-04-25T04:26:09;6.2;70.6
9666;DHT22;4871;52.004;5.924;2023-04-25T04:27:00;6.2;70.7
9666;DHT22;4871;52.004;5.924;2023-04-25T04:28:07;6.2;70.7
9666;DHT22;4871;52.004;5.924;2023-04-25T04:29:00;6.1;70.6
9666;DHT22;4871;52.004;5.924;2023-04-25T04:30:07;6.1;70.7
9666;DHT22;4871;52.004;5.924;2023-04-25T04:31:01;6.2;70.9
9666;DHT22;4871;52.004;5.924;2023-04-25T04:32:08;6.1;70.8
9666;DHT22;4871;52.004;5.924;2023-04-25T04:33:00;6.1;70.6
9666;DHT22;4871;52.004;5.924;2023-04-25T04:34:07;6.1;70.8
9666;DHT22;4871;52.004;5.924;2023-04-25T04:35:00;6.1;70.6
9666;DHT22;4871;52.004;5.924;2023-04-25T04:36:07;6.1;70.8
9666;DHT22;4871;52.004;5.924;2023-04-25T04:37:00;6.1;70.8
9666;DHT22;4871;52.004;5.924;2023-04-25T04:38:07;6.1;70.7
9666;DHT22;4871;52.004;5.924;2023-04-25T04:39:00;6.1;70.7
9666;DHT22;4871;52.004;5.924;2023-04-25T04:40:08;6.1;70.9
9666;DHT22;4871;52.004;5.924;2023-04-25T04:41:00;6.1;70.8
9666;DHT22;4871;52.004;5.924;2023-04-25T04:42:07;6.1;70.7
9666;DHT22;4871;52.004;5.924;2023-04-25T04:43:00;6.1;70.7
9666;DHT22;4871;52.004;5.924;2023-04-25T04:44:08;6.1;70.6
9666;DHT22;4871;52.004;5.924;2023-04-25T04:45:01;6.1;70.8
9666;DHT22;4871;52.004;5.924;2023-04-25T04:46:05;6.1;70.5
9666;DHT22;4871;52.004;5.924;2023-04-25T04:47:00;6.1;70.7
9666;DHT22;4871;52.004;5.924;2023-04-25T04:48:06;6.1;70.6
9666;DHT22;4871;52.004;5.924;2023-04-25T04:49:00;6.1;70.6
9666;DHT22;4871;52.004;5.924;2023-04-25T04:50:09;6.1;70.5
9666;DHT22;4871;52.004;5.924;2023-04-25T04:51:00;6.1;70.8
9666;DHT22;4871;52.004;5.924;2023-04-25T04:52:06;6.1;70.6
9666;DHT22;4871;52.004;5.924;2023-04-25T04:53:00;6.1;70.5
9666;DHT22;4871;52.004;5.924;2023-04-25T04:54:06;6.1;70.7
9666;DHT22;4871;52.004;5.924;2023-04-25T04:55:00;6.1;70.5
9666;DHT22;4871;52.004;5.924;2023-04-25T04:56:06;6.1;70.7
9666;DHT22;4871;52.004;5.924;2023-04-25T04:57:00;6.1;70.5
9666;DHT22;4871;52.004;5.924;2023-04-25T04:58:05;6.1;70.7
9666;DHT22;4871;52.004;5.924;2023-04-25T04:59:01;6.1;70.9
9666;DHT22;4871;52.004;5.924;2023-04-25T05:00:11;6.1;70.8
9666;DHT22;4871;52.004;5.924;2023-04-25T05:01:00;6.1;70.8
9666;DHT22;4871;52.004;5.924;2023-04-25T05:02:07;6.1;70.9
9666;DHT22;4871;52.004;5.924;2023-04-25T05:03:00;6.2;70.7
9666;DHT22;4871;52.004;5.924;2023-04-25T05:04:06;6.2;70.7
9666;DHT22;4871;52.004;5.924;2023-04-25T05:05:00;6.2;70.3
9666;DHT22;4871;52.004;5.924;2023-04-25T05:06:06;6.2;70.5
9666;DHT22;4871;52.004;5.924;2023-04-25T05:07:00;6.2;70.6
9666;DHT22;4871;52.004;5.924;2023-04-25T05:08:07;6.2;70.5
9666;DHT22;4871;52.004;5.924;2023-04-25T05:09:00;6.2;70.5
9666;DHT22;4871;52.004;5.924;2023-04-25T05:10:07;6.2;70.4
9666;DHT22;4871;52.004;5.924;2023-04-25T05:11:00;6.2;70.4
9666;DHT22;4871;52.004;5.924;2023-04-25T05:12:08;6.2;70.4
9666;DHT22;4871;52.004;5.924;2023-04-25T05:13:00;6.3;70.4
9666;DHT22;4871;52.004;5.924;2023-04-25T05:14:06;6.3;70.3
9666;DHT22;4871;52.004;5.924;2023-04-25T05:15:00;6.3;70.4
9666;DHT22;4871;52.004;5.924;2023-04-25T05:16:06;6.3;70.3
9666;DHT22;4871;52.004;5.924;2023-04-25T05:17:00;6.3;70.2
9666;DHT22;4871;52.004;5.924;2023-04-25T05:18:06;6.3;70.2
9666;DHT22;4871;52.004;5.924;2023-04-25T05:19:00;6.3;70.0
9666;DHT22;4871;52.004;5.924;2023-04-25T05:20:08;6.3;70.1
9666;DHT22;4871;52.004;5.924;2023-04-25T05:21:00;6.3;70.1
9666;DHT22;4871;52.004;5.924;2023-04-25T05:22:00;6.3;69.9
9666;DHT22;4871;52.004;5.924;2023-04-25T05:23:00;6.4;69.7
9666;DHT22;4871;52.004;5.924;2023-04-25T05:24:07;6.4;69.7
9666;DHT22;4871;52.004;5.924;2023-04-25T05:25:00;6.4;69.6
9666;DHT22;4871;52.004;5.924;2023-04-25T05:26:13;6.5;69.8
9666;DHT22;4871;52.004;5.924;2023-04-25T05:27:00;6.4;69.8
9666;DHT22;4871;52.004;5.924;2023-04-25T05:28:07;6.4;69.8
9666;DHT22;4871;52.004;5.924;2023-04-25T05:29:00;6.5;69.7
9666;DHT22;4871;52.004;5.924;2023-04-25T05:30:07;6.5;69.7
9666;DHT22;4871;52.004;5.924;2023-04-25T05:31:00;6.5;69.7
9666;DHT22;4871;52.004;5.924;2023-04-25T05:32:07;6.5;69.8
9666;DHT22;4871;52.004;5.924;2023-04-25T05:33:01;6.5;69.7
9666;DHT22;4871;52.004;5.924;2023-04-25T05:34:06;6.5;69.7
9666;DHT22;4871;52.004;5.924;2023-04-25T05:35:00;6.6;69.6
9666;DHT22;4871;52.004;5.924;2023-04-25T05:36:08;6.5;69.6
9666;DHT22;4871;52.004;5.924;2023-04-25T05:37:00;6.6;69.6
9666;DHT22;4871;52.004;5.924;2023-04-25T05:38:06;6.6;69.5
9666;DHT22;4871;52.004;5.924;2023-04-25T05:39:00;6.6;69.6
9666;DHT22;4871;52.004;5.924;2023-04-25T05:40:07;6.6;69.5
9666;DHT22;4871;52.004;5.924;2023-04-25T05:41:00;6.6;69.6
9666;DHT22;4871;52.004;5.924;2023-04-25T05:42:08;6.6;69.5
9666;DHT22;4871;52.004;5.924;2023-04-25T05:43:00;6.6;69.6
9666;DHT22;4871;52.004;5.924;2023-04-25T05:44:08;6.6;69.6
9666;DHT22;4871;52.004;5.924;2023-04-25T05:45:00;6.6;69.6
9666;DHT22;4871;52.004;5.924;2023-04-25T05:46:07;6.6;69.5
9666;DHT22;4871;52.004;5.924;2023-04-25T05:47:00;6.7;69.5
9666;DHT22;4871;52.004;5.924;2023-04-25T05:48:06;6.6;69.4
9666;DHT22;4871;52.004;5.924;2023-04-25T05:49:00;6.7;69.4
9666;DHT22;4871;52.004;5.924;2023-04-25T05:50:07;6.7;69.4
9666;DHT22;4871;52.004;5.924;2023-04-25T05:51:00;6.7;69.5
9666;DHT22;4871;52.004;5.924;2023-04-25T05:52:06;6.7;69.5
9666;DHT22;4871;52.004;5.924;2023-04-25T05:53:00;6.7;69.4
9666;DHT22;4871;52.004;5.924;2023-04-25T05:54:06;6.7;69.3
9666;DHT22;4871;52.004;5.924;2023-04-25T05:55:00;6.7;69.3
9666;DHT22;4871;52.004;5.924;2023-04-25T05:56:06;6.7;69.3
9666;DHT22;4871;52.004;5.924;2023-04-25T05:57:00;6.7;69.3
9666;DHT22;4871;52.004;5.924;2023-04-25T05:58:07;6.7;69.3
9666;DHT22;4871;52.004;5.924;2023-04-25T05:59:00;6.7;69.2
9666;DHT22;4871;52.004;5.924;2023-04-25T06:00:11;6.7;69.3
9666;DHT22;4871;52.004;5.924;2023-04-25T06:01:00;6.7;69.6
9666;DHT22;4871;52.004;5.924;2023-04-25T06:02:07;6.7;69.4
9666;DHT22;4871;52.004;5.924;2023-04-25T06:03:01;6.7;69.5
9666;DHT22;4871;52.004;5.924;2023-04-25T06:04:06;6.7;69.3
9666;DHT22;4871;52.004;5.924;2023-04-25T06:05:03;6.7;69.4
9666;DHT22;4871;52.004;5.924;2023-04-25T06:06:00;6.8;69.2
9666;DHT22;4871;52.004;5.924;2023-04-25T06:07:00;6.8;69.3
9666;DHT22;4871;52.004;5.924;2023-04-25T06:08:05;6.8;69.3
9666;DHT22;4871;52.004;5.924;2023-04-25T06:09:00;6.8;69.3
9666;DHT22;4871;52.004;5.924;2023-04-25T06:10:08;6.9;69.2
9666;DHT22;4871;52.004;5.924;2023-04-25T06:11:00;6.9;69.3
9666;DHT22;4871;52.004;5.924;2023-04-25T06:12:08;6.9;69.1
9666;DHT22;4871;52.004;5.924;2023-04-25T06:13:00;6.9;69.1
9666;DHT22;4871;52.004;5.924;2023-04-25T06:14:00;7.0;69.0
9666;DHT22;4871;52.004;5.924;2023-04-25T06:15:00;7.0;69.0
9666;DHT22;4871;52.004;5.924;2023-04-25T06:16:06;7.0;68.8
9666;DHT22;4871;52.004;5.924;2023-04-25T06:17:06;7.0;68.9
9666;DHT22;4871;52.004;5.924;2023-04-25T06:18:07;7.1;68.9
9666;DHT22;4871;52.004;5.924;2023-04-25T06:19:00;7.1;68.7
9666;DHT22;4871;52.004;5.924;2023-04-25T06:20:08;7.1;69.0
9666;DHT22;4871;52.004;5.924;2023-04-25T06:21:00;7.1;69.0
9666;DHT22;4871;52.004;5.924;2023-04-25T06:22:07;7.1;68.9
9666;DHT22;4871;52.004;5.924;2023-04-25T06:23:00;7.1;68.9
9666;DHT22;4871;52.004;5.924;2023-04-25T06:24:07;7.1;69.4
9666;DHT22;4871;52.004;5.924;2023-04-25T06:25:00;7.1;68.9
9666;DHT22;4871;52.004;5.924;2023-04-25T06:26:06;7.2;69.0
9666;DHT22;4871;52.004;5.924;2023-04-25T06:27:00;7.2;68.9
9666;DHT22;4871;52.004;5.924;2023-04-25T06:28:06;7.2;69.1
9666;DHT22;4871;52.004;5.924;2023-04-25T06:29:00;7.2;69.0
9666;DHT22;4871;52.004;5.924;2023-04-25T06:30:07;7.2;69.0
9666;DHT22;4871;52.004;5.924;2023-04-25T06:31:00;7.2;69.0
9666;DHT22;4871;52.004;5.924;2023-04-25T06:32:00;7.2;69.2
9666;DHT22;4871;52.004;5.924;2023-04-25T06:33:00;7.3;69.3
9666;DHT22;4871;52.004;5.924;2023-04-25T06:34:00;7.3;69.2
9666;DHT22;4871;52.004;5.924;2023-04-25T06:35:00;7.3;69.7
9666;DHT22;4871;52.004;5.924;2023-04-25T06:36:07;7.3;69.0
9666;DHT22;4871;52.004;5.924;2023-04-25T06:37:00;7.4;69.1
9666;DHT22;4871;52.004;5.924;2023-04-25T06:38:06;7.4;68.8
9666;DHT22;4871;52.004;5.924;2023-04-25T06:39:00;7.4;69.2
9666;DHT22;4871;52.004;5.924;2023-04-25T06:40:00;7.4;69.3
9666;DHT22;4871;52.004;5.924;2023-04-25T06:41:00;7.4;69.0
9666;DHT22;4871;52.004;5.924;2023-04-25T06:42:07;7.4;69.2
9666;DHT22;4871;52.004;5.924;2023-04-25T06:43:00;7.4;69.1
9666;DHT22;4871;52.004;5.924;2023-04-25T06:44:06;7.5;68.9
9666;DHT22;4871;52.004;5.924;2023-04-25T06:45:00;7.5;69.0
9666;DHT22;4871;52.004;5.924;2023-04-25T06:46:00;7.5;69.3
9666;DHT22;4871;52.004;5.924;2023-04-25T06:47:00;7.6;69.1
9666;DHT22;4871;52.004;5.924;2023-04-25T06:48:07;7.6;68.9
9666;DHT22;4871;52.004;5.924;2023-04-25T06:49:00;7.6;69.0
9666;DHT22;4871;52.004;5.924;2023-04-25T06:50:07;7.7;68.5
9666;DHT22;4871;52.004;5.924;2023-04-25T06:51:00;7.7;69.1